createdAt,value
2022-10-18T00:09:10.802Z,14.2
2022-10-18T00:19:13.256Z,14.2
2022-10-18T00:29:14.986Z,14.2
2022-10-18T00:39:17.106Z,14.3
2022-10-18T00:49:19.127Z,14.2
2022-10-18T00:59:21.050Z,14.2
2022-10-18T01:09:22.895Z,14.1
2022-10-18T01:19:24.740Z,14.1
2022-10-18T01:29:26.823Z,14.1
2022-10-18T01:49:30.537Z,13.9
2022-10-18T01:59:33.027Z,13.9
2022-10-18T02:09:35.449Z,13.9
2022-10-18T02:19:37.335Z,14
2022-10-18T02:29:39.406Z,13.9
2022-10-18T02:39:41.792Z,13.8
2022-10-18T02:49:52.331Z,13.9
2022-10-18T02:59:54.385Z,13.8
2022-10-18T03:09:56.203Z,13.9
2022-10-18T03:19:58.835Z,13.8
2022-10-18T03:30:01.240Z,13.8
2022-10-18T03:40:03.349Z,13.8
2022-10-18T03:50:06.006Z,13.8
2022-10-18T04:00:07.944Z,13.8
2022-10-18T04:10:10.022Z,13.8
2022-10-18T04:20:11.804Z,13.8
2022-10-18T04:30:13.692Z,13.8
2022-10-18T04:40:15.722Z,13.8
2022-10-18T04:50:18.149Z,13.9
2022-10-18T05:00:19.857Z,13.8
2022-10-18T05:20:24.167Z,13.8
2022-10-18T05:30:26.598Z,13.8
2022-10-18T05:40:28.383Z,13.8
2022-10-18T05:50:30.074Z,13.9
2022-10-18T06:00:32.023Z,13.9
2022-10-18T06:10:33.999Z,13.8
2022-10-18T06:20:36.553Z,13.7
2022-10-18T06:30:38.412Z,13.7
2022-10-18T06:40:40.983Z,13.8
2022-10-18T07:00:45.287Z,13.9
2022-10-18T07:10:46.997Z,13.9
2022-10-18T07:20:49.492Z,14
2022-10-18T07:30:51.570Z,14.1
2022-10-18T07:50:56.512Z,14.4
2022-10-18T08:11:00.337Z,14.6
2022-10-18T08:21:02.007Z,14.5
2022-10-18T08:41:05.751Z,14.4
2022-10-18T08:51:07.443Z,14.4
2022-10-18T09:01:10.070Z,14.6
2022-10-18T09:11:12.543Z,14.7
2022-10-18T09:21:14.982Z,14.9
2022-10-18T09:41:19.660Z,15.4
2022-10-18T09:51:21.373Z,15.4
2022-10-18T10:11:25.483Z,15.6
2022-10-18T10:21:27.770Z,15.7
2022-10-18T10:51:34.822Z,16.2
2022-10-18T11:01:36.653Z,17.2
2022-10-18T11:11:38.858Z,16.9
2022-10-18T11:31:43.088Z,17.2
2022-10-18T11:52:07.052Z,18
2022-10-18T12:01:50.412Z,18.1
2022-10-18T12:11:55.680Z,18
2022-10-18T12:21:55.497Z,17.9
2022-10-18T13:02:04.823Z,18
2022-10-18T14:22:21.594Z,17.2
2022-10-18T14:32:23.814Z,17
2022-10-18T14:52:30.548Z,17
2022-10-18T16:42:50.800Z,12.5
2022-10-18T16:52:52.950Z,11.9
2022-10-18T17:53:07.005Z,10.1
2022-10-18T18:53:19.039Z,8.9
2022-10-18T19:13:23.070Z,8.6
2022-10-18T19:53:31.654Z,8.5
2022-10-18T20:03:34.143Z,8
2022-10-18T20:33:41.089Z,7.6
2022-10-18T21:03:47.251Z,7.4
2022-10-18T21:13:49.544Z,7.2
2022-10-18T21:33:54.452Z,6.9
2022-10-18T21:43:57.027Z,6.9
2022-10-18T21:53:59.044Z,6.7
2022-10-18T22:14:03.454Z,6.7
2022-10-18T22:54:12.779Z,6.1
2022-10-18T23:04:14.604Z,5.8
2022-10-18T23:54:25.576Z,5.2
